Startpagina
METAR-TAF:

METAR-TAF

Vliegvelden :

Bahrein, Bahrein

Internationale luchthaven van Bahrein

breedte: 26-16N, lengte: 050-39E, hoogte: 2 m

Actueel weer

Dit bericht is 13 minuten geleden gemaakt, om 19:00 UTC
Wind 5 kt uit het noordnoordwesten
Temperatuur 29°C
Vochtigheid 62%
Druk 1010 hPa
Zicht 10 km of meer
geen wolken onder 1500 m en geen cumulonimbus

METAR: OBBI 211900Z 34005KT CAVOK 29/21 Q1010 NOSIG

Tijdstip: 22:13 (19:13 UTC)

Verwachting

Dit bericht is 2 uur en het 13 minuten geleden gemaakt, om 17:00 UTC
Verwachting geldig van 21 om 18 UTC tot 23 om 00 UTC
Wind 5 kt uit variabele richting
Zicht 10 km of meer
geen wolken onder 1500 m en geen cumulonimbus
Kans 30% :
Tijdelijke
van 21 om 22 UTC tot 22 om 05 UTC
Zicht: 5000 m
Heiigheid
Wijzigt naar
van 22 om 05 UTC tot 22 om 07 UTC
Wind 10 kt uit het noorden

TAF: OBBI 211700Z 2118/2300 VRB05KT CAVOK PROB30 TEMPO 2122/2205 5000 HZ BECMG 2205/2207 35010KT

Waarnemingen en weersverwachtingen van meer dan 4000 vliegvelden (METAR en TAF).

De beschikbare stations zijn de gele en rode punten op de kaart.

Ga met uw muis naar het station om de naam te zien.

Klik dan om waarnemingen en weersverwachtingen te zien.

kaart wijzigen: klik op de groene knoppen met een zwart kruis om in te zoomen, op de groene knop met een streepje om uit te zoomen of op de groene pijlen voor aangrenzende kaarten.


METAR-TAF: